Time;durP1;ratioP1;P1;durP2;ratioP2;P2;SDS_P1;SDS_P2;PMS_P1;PMS_P2;Temp;Humidity;BMP_temperature;BMP_pressure;BME280_temperature;BME280_humidity;BME280_pressure;Samples;Min_cycle;Max_cycle;Signal;HPM_P1;HPM_P2
2021/09/05 00:02:17;;;;;;;7.63;5.60;;;15.10;74.40;;;;;;5074655;28;20036;-79
2021/09/05 00:04:43;;;;;;;8.05;6.25;;;15.00;74.60;;;;;;5074935;28;20016;-79
2021/09/05 00:07:08;;;;;;;9.05;6.00;;;15.00;74.60;;;;;;5074873;28;20475;-78
2021/09/05 00:09:35;;;;;;;11.25;5.70;;;15.00;74.60;;;;;;5074975;28;20365;-79
2021/09/05 00:12:02;;;;;;;7.63;5.35;;;15.10;74.50;;;;;;5074777;28;20056;-79
2021/09/05 00:14:28;;;;;;;9.15;5.30;;;15.00;74.70;;;;;;5074821;28;20027;-78
2021/09/05 00:16:53;;;;;;;11.23;5.53;;;15.10;74.40;;;;;;5074750;28;20392;-77
2021/09/05 00:19:19;;;;;;;9.98;6.03;;;15.00;74.40;;;;;;5074612;28;20384;-78
2021/09/05 00:21:45;;;;;;;8.90;5.85;;;15.00;74.50;;;;;;5074615;28;20059;-79
2021/09/05 00:24:10;;;;;;;10.88;5.65;;;14.90;74.80;;;;;;5074465;28;20020;-79
2021/09/05 00:26:36;;;;;;;9.82;5.65;;;14.90;74.80;;;;;;5074759;28;20068;-80
2021/09/05 00:29:01;;;;;;;10.85;5.85;;;15.00;74.80;;;;;;5092491;28;20043;-80
2021/09/05 00:31:27;;;;;;;8.40;6.13;;;14.90;75.10;;;;;;5074391;28;20021;-79
2021/09/05 00:33:54;;;;;;;9.43;5.88;;;14.90;75.00;;;;;;5075841;28;20036;-78
2021/09/05 00:36:19;;;;;;;8.98;6.35;;;15.00;74.90;;;;;;5078068;28;20024;-78
2021/09/05 00:38:45;;;;;;;8.30;5.93;;;15.00;74.80;;;;;;5077470;28;20024;-78
2021/09/05 00:41:10;;;;;;;9.93;6.15;;;14.90;74.90;;;;;;5075822;28;20028;-78
2021/09/05 00:43:56;;;;;;;9.02;5.85;;;14.80;75.20;;;;;;5075073;28;20476;-78
2021/09/05 00:46:21;;;;;;;7.05;5.30;;;14.80;75.20;;;;;;5074636;28;20043;-78
2021/09/05 00:48:47;;;;;;;8.45;5.80;;;14.70;75.30;;;;;;5074413;28;20469;-78
2021/09/05 00:51:13;;;;;;;10.48;5.80;;;14.70;75.70;;;;;;5074234;28;20349;-78
2021/09/05 00:53:38;;;;;;;8.55;5.25;;;14.70;75.80;;;;;;5074318;28;20071;-78
2021/09/05 00:56:04;;;;;;;9.68;6.07;;;14.70;75.60;;;;;;5057663;28;20473;-78
2021/09/05 00:58:30;;;;;;;10.85;5.93;;;14.60;75.60;;;;;;5074454;28;20031;-78
2021/09/05 01:00:57;;;;;;;8.80;6.03;;;14.60;76.00;;;;;;5074391;28;20465;-78
2021/09/05 01:03:23;;;;;;;9.05;5.88;;;14.50;76.10;;;;;;5074208;28;20051;-78
2021/09/05 01:05:49;;;;;;;11.40;5.95;;;14.60;76.00;;;;;;5075030;28;20027;-78
2021/09/05 01:08:14;;;;;;;8.02;5.60;;;14.60;76.10;;;;;;5078001;28;20030;-77
2021/09/05 01:10:40;;;;;;;7.90;6.03;;;14.60;75.90;;;;;;5077816;28;20023;-78
2021/09/05 01:13:06;;;;;;;9.65;5.18;;;14.70;75.80;;;;;;5077741;28;20487;-77
2021/09/05 01:15:32;;;;;;;7.63;5.40;;;14.60;75.70;;;;;;5077786;28;20032;-78
2021/09/05 01:17:59;;;;;;;8.20;5.40;;;14.70;75.80;;;;;;5077564;28;20407;-78
2021/09/05 01:20:24;;;;;;;9.55;5.60;;;14.70;75.80;;;;;;5077756;28;20162;-78
2021/09/05 01:22:51;;;;;;;8.82;5.78;;;14.70;76.60;;;;;;5077410;28;20482;-78
2021/09/05 01:25:16;;;;;;;7.07;5.40;;;14.70;75.80;;;;;;5077613;28;20047;-78
2021/09/05 01:27:42;;;;;;;7.97;5.68;;;14.60;75.80;;;;;;5077341;28;20462;-78
2021/09/05 01:30:08;;;;;;;9.27;5.78;;;14.60;75.80;;;;;;5077295;28;20050;-78
2021/09/05 01:32:34;;;;;;;6.95;5.10;;;14.50;76.10;;;;;;5076915;28;20034;-78
2021/09/05 01:35:02;;;;;;;8.85;5.45;;;14.50;76.40;;;;;;5077134;28;20024;-78
2021/09/05 01:37:27;;;;;;;6.93;5.30;;;14.50;76.30;;;;;;5077751;28;20047;-78
2021/09/05 01:39:53;;;;;;;10.55;5.80;;;14.50;76.40;;;;;;5095355;28;20125;-78
2021/09/05 01:42:18;;;;;;;8.27;5.80;;;14.50;76.60;;;;;;5077177;28;20020;-78
2021/09/05 01:44:44;;;;;;;7.78;5.35;;;14.50;76.50;;;;;;5095189;28;20429;-78
2021/09/05 01:47:09;;;;;;;7.18;5.28;;;14.40;76.70;;;;;;5076875;28;20443;-77
2021/09/05 01:49:35;;;;;;;10.13;6.20;;;14.40;76.90;;;;;;5077003;28;20376;-77
2021/09/05 01:52:00;;;;;;;7.97;5.53;;;14.30;77.00;;;;;;5077136;28;20024;-78
2021/09/05 01:54:26;;;;;;;10.02;5.78;;;14.30;77.00;;;;;;5076961;28;20098;-78
2021/09/05 01:56:52;;;;;;;8.05;5.10;;;14.30;77.10;;;;;;5076876;28;20025;-78
2021/09/05 01:59:17;;;;;;;10.52;5.35;;;14.40;77.10;;;;;;5076810;28;20073;-79
2021/09/05 02:01:43;;;;;;;9.95;6.22;;;14.40;77.00;;;;;;5076985;28;20032;-78
2021/09/05 02:04:08;;;;;;;7.82;5.53;;;14.40;76.90;;;;;;5076715;28;20029;-78
2021/09/05 02:06:34;;;;;;;7.13;5.43;;;14.40;76.90;;;;;;5076585;28;20118;-78
2021/09/05 02:08:59;;;;;;;10.80;6.13;;;14.40;76.90;;;;;;5076664;28;20537;-77
2021/09/05 02:11:25;;;;;;;7.25;5.35;;;14.40;76.80;;;;;;5076800;28;20383;-79
2021/09/05 02:13:51;;;;;;;7.45;5.72;;;14.50;76.70;;;;;;5076596;28;20031;-77
2021/09/05 02:16:17;;;;;;;8.63;5.72;;;14.50;76.50;;;;;;5076465;28;20380;-78
2021/09/05 02:18:44;;;;;;;9.40;5.30;;;14.40;76.90;;;;;;5076651;28;20042;-77
2021/09/05 02:21:10;;;;;;;8.05;5.78;;;14.30;77.20;;;;;;5076372;28;20020;-77
2021/09/05 02:23:35;;;;;;;9.27;5.63;;;14.30;77.70;;;;;;5094582;28;20024;-79
2021/09/05 02:26:01;;;;;;;10.93;6.07;;;14.20;77.80;;;;;;5076327;28;20072;-78
2021/09/05 02:28:27;;;;;;;8.45;5.63;;;14.20;77.70;;;;;;5077155;28;20035;-78
2021/09/05 02:30:53;;;;;;;8.35;5.80;;;14.20;77.70;;;;;;5076430;28;20020;-78
2021/09/05 02:33:18;;;;;;;10.18;5.97;;;14.20;77.70;;;;;;5095882;28;20028;-78
2021/09/05 02:35:44;;;;;;;7.63;5.68;;;14.30;77.60;;;;;;5076295;28;20422;-79
2021/09/05 02:38:10;;;;;;;11.25;5.70;;;14.30;77.60;;;;;;5076837;28;20020;-80
2021/09/05 02:40:35;;;;;;;9.50;5.78;;;14.20;77.70;;;;;;5076200;28;20376;-79
2021/09/05 02:43:01;;;;;;;7.20;5.30;;;14.20;77.80;;;;;;5094148;28;20477;-79
2021/09/05 02:45:27;;;;;;;9.35;6.30;;;14.20;77.70;;;;;;5075685;28;20503;-79
2021/09/05 02:47:52;;;;;;;7.28;5.60;;;14.10;78.10;;;;;;5075274;28;20118;-79
2021/09/05 02:50:18;;;;;;;7.95;5.70;;;14.10;78.40;;;;;;5075844;28;20542;-80
2021/09/05 02:52:44;;;;;;;8.75;6.10;;;14.00;78.90;;;;;;5075910;28;20031;-78
2021/09/05 02:55:10;;;;;;;7.82;5.75;;;13.90;78.90;;;;;;5075688;28;20556;-77
2021/09/05 02:57:35;;;;;;;7.97;4.93;;;13.90;79.10;;;;;;5075655;28;20031;-78
2021/09/05 03:00:01;;;;;;;8.55;6.40;;;14.00;79.20;;;;;;5075522;28;20408;-78
2021/09/05 03:02:27;;;;;;;11.38;6.53;;;13.90;79.20;;;;;;5075530;28;20119;-81
2021/09/05 03:04:52;;;;;;;8.55;6.20;;;13.90;79.40;;;;;;5075739;28;20028;-82
2021/09/05 03:07:18;;;;;;;8.85;6.32;;;13.90;79.30;;;;;;5075384;28;20507;-82
2021/09/05 03:09:43;;;;;;;9.18;5.78;;;13.90;79.40;;;;;;5075445;28;20383;-82
2021/09/05 03:12:09;;;;;;;9.73;6.28;;;13.80;79.50;;;;;;5058894;28;20360;-81
2021/09/05 03:14:35;;;;;;;10.75;6.53;;;13.80;80.00;;;;;;5075311;28;20043;-81
2021/09/05 03:17:00;;;;;;;6.38;5.40;;;13.80;79.60;;;;;;5075401;28;20031;-82
2021/09/05 03:19:26;;;;;;;11.43;6.85;;;13.80;79.90;;;;;;5075373;28;20024;-81
2021/09/05 03:21:51;;;;;;;8.05;5.82;;;13.80;79.70;;;;;;5075201;28;20086;-82
2021/09/05 03:24:17;;;;;;;9.32;6.00;;;13.90;79.60;;;;;;5058526;28;20020;-81
2021/09/05 03:26:42;;;;;;;10.75;6.18;;;13.90;79.40;;;;;;5075000;28;20067;-80
2021/09/05 03:29:08;;;;;;;8.20;6.20;;;13.90;79.30;;;;;;5074544;28;20031;-80
2021/09/05 03:31:33;;;;;;;7.68;5.80;;;13.90;79.40;;;;;;5075024;28;20020;-80
2021/09/05 03:33:59;;;;;;;10.05;5.90;;;13.80;79.60;;;;;;5075094;28;20032;-80
2021/09/05 03:36:25;;;;;;;10.05;6.22;;;13.80;79.80;;;;;;5075007;28;20024;-80
2021/09/05 03:38:51;;;;;;;13.40;7.03;;;13.80;79.90;;;;;;5075180;28;20013;-81
2021/09/05 03:41:16;;;;;;;8.65;6.43;;;13.80;79.80;;;;;;5074935;28;20376;-80
2021/09/05 03:43:42;;;;;;;9.95;6.40;;;13.80;79.90;;;;;;5093225;28;20396;-81
2021/09/05 03:46:10;;;;;;;7.78;5.95;;;13.90;80.70;;;;;;5074857;28;20024;-81
2021/09/05 03:48:35;;;;;;;10.80;6.35;;;13.90;79.60;;;;;;5074818;28;20028;-81
2021/09/05 03:51:01;;;;;;;11.57;5.88;;;13.90;79.40;;;;;;5074845;28;20024;-80
2021/09/05 03:53:26;;;;;;;8.43;6.15;;;14.00;79.30;;;;;;5074793;28;20024;-81
2021/09/05 03:55:53;;;;;;;10.20;5.40;;;13.90;79.40;;;;;;5074633;28;20365;-81
2021/09/05 03:58:19;;;;;;;9.95;6.47;;;13.90;79.60;;;;;;5075001;28;20384;-80
2021/09/05 04:00:45;;;;;;;9.95;5.93;;;13.80;79.60;;;;;;5075068;28;20020;-80
2021/09/05 04:03:10;;;;;;;7.47;5.75;;;13.70;80.00;;;;;;5074648;28;20052;-80
2021/09/05 04:05:37;;;;;;;7.50;5.78;;;13.70;80.20;;;;;;5075133;28;20115;-80
2021/09/05 04:10:35;;;;;;;9.55;5.70;;;13.80;80.40;;;;;;5093132;28;20020;-79
2021/09/05 04:13:02;;;;;;;8.77;6.10;;;13.80;80.30;;;;;;5074579;28;20030;-79
2021/09/05 04:15:28;;;;;;;8.10;5.63;;;13.70;80.30;;;;;;5074672;28;20065;-79
2021/09/05 04:17:54;;;;;;;7.93;6.20;;;13.80;80.10;;;;;;5074511;28;20016;-79
2021/09/05 04:20:20;;;;;;;10.43;6.28;;;13.70;80.00;;;;;;5074780;28;20032;-80
2021/09/05 04:22:46;;;;;;;9.10;6.60;;;13.70;80.10;;;;;;5092927;28;20032;-79
2021/09/05 04:25:13;;;;;;;8.45;5.63;;;13.60;80.50;;;;;;5092702;28;20111;-80
2021/09/05 04:27:39;;;;;;;9.77;5.78;;;13.60;80.90;;;;;;5057895;28;20489;-80
2021/09/05 04:30:06;;;;;;;9.05;5.95;;;13.60;81.10;;;;;;5074572;28;20533;-79
2021/09/05 04:32:33;;;;;;;9.35;6.25;;;13.60;81.00;;;;;;5074841;28;20063;-80
2021/09/05 04:35:02;;;;;;;10.68;7.22;;;13.60;81.10;;;;;;5074404;28;20024;-80
2021/09/05 04:37:28;;;;;;;14.52;8.45;;;13.60;80.70;;;;;;5078677;28;20025;-80
2021/09/05 04:39:54;;;;;;;13.15;7.85;;;13.60;80.30;;;;;;5080150;28;20076;-79
2021/09/05 04:42:21;;;;;;;12.55;6.90;;;13.60;80.70;;;;;;5087772;28;20028;-82
2021/09/05 04:44:46;;;;;;;9.73;6.93;;;13.50;80.90;;;;;;5092379;28;20024;-80
2021/09/05 04:47:13;;;;;;;10.48;6.90;;;13.50;81.20;;;;;;5078372;28;20482;-81
2021/09/05 04:49:38;;;;;;;10.68;6.72;;;13.50;80.90;;;;;;5078272;28;20025;-81
2021/09/05 04:52:06;;;;;;;10.00;6.75;;;13.50;80.80;;;;;;5078178;28;20024;-80
2021/09/05 04:54:33;;;;;;;15.75;7.00;;;13.60;80.70;;;;;;5078343;28;20016;-80
2021/09/05 04:56:58;;;;;;;10.93;6.40;;;13.60;80.40;;;;;;5095968;28;20118;-79
2021/09/05 04:59:24;;;;;;;12.88;5.97;;;13.70;80.60;;;;;;5096505;28;20031;-79
2021/09/05 05:01:50;;;;;;;7.65;6.07;;;13.60;81.10;;;;;;5077761;28;20035;-80
2021/09/05 05:04:15;;;;;;;9.32;6.28;;;13.50;81.40;;;;;;5077950;28;20062;-79
2021/09/05 05:06:42;;;;;;;9.82;6.65;;;13.50;81.30;;;;;;5078118;28;20504;-80
2021/09/05 05:09:08;;;;;;;9.88;6.90;;;13.50;81.40;;;;;;5077663;28;20020;-79
2021/09/05 05:11:35;;;;;;;10.23;6.38;;;13.60;81.40;;;;;;5077597;28;20031;-80
2021/09/05 05:14:01;;;;;;;13.93;6.47;;;13.60;81.20;;;;;;5077692;28;20426;-82
2021/09/05 05:16:28;;;;;;;10.57;6.22;;;13.70;81.10;;;;;;5060433;28;20024;-81
2021/09/05 05:18:54;;;;;;;8.38;5.50;;;13.80;80.80;;;;;;5077277;28;20028;-80
2021/09/05 05:21:23;;;;;;;8.20;6.13;;;13.80;80.80;;;;;;5095682;28;20029;-81
2021/09/05 05:23:49;;;;;;;9.18;6.18;;;13.90;80.40;;;;;;5077678;28;20024;-80
2021/09/05 05:26:14;;;;;;;9.30;6.32;;;13.90;79.80;;;;;;5095688;28;20107;-79
2021/09/05 05:28:40;;;;;;;9.30;6.20;;;14.00;79.50;;;;;;5077040;28;20058;-79
2021/09/05 05:31:07;;;;;;;9.27;5.85;;;14.00;79.40;;;;;;5070888;28;20472;-79
2021/09/05 05:33:34;;;;;;;8.07;5.45;;;14.10;79.50;;;;;;5076330;28;20131;-80
2021/09/05 05:36:01;;;;;;;9.05;5.75;;;14.10;79.20;;;;;;5057573;28;20020;-80
2021/09/05 05:38:26;;;;;;;7.13;5.50;;;14.20;78.90;;;;;;5101121;28;20044;-80
2021/09/05 05:40:52;;;;;;;8.25;6.13;;;14.20;78.60;;;;;;5077337;28;20025;-78
2021/09/05 05:43:17;;;;;;;8.43;5.97;;;14.30;78.40;;;;;;5077073;28;20055;-80
2021/09/05 05:45:44;;;;;;;7.75;6.10;;;14.40;78.00;;;;;;5077544;28;20036;-78
2021/09/05 05:48:11;;;;;;;10.75;5.80;;;14.40;77.80;;;;;;5077138;28;20032;-79
2021/09/05 05:50:36;;;;;;;7.38;5.55;;;14.50;78.00;;;;;;5076708;28;20016;-79
2021/09/05 05:53:02;;;;;;;8.95;6.10;;;14.50;78.00;;;;;;5076360;28;20031;-78
2021/09/05 05:55:28;;;;;;;12.20;6.68;;;14.60;77.70;;;;;;5076792;28;20535;-78
2021/09/05 05:57:53;;;;;;;10.90;6.78;;;14.80;77.20;;;;;;5060065;28;20024;-79
2021/09/05 06:00:20;;;;;;;8.00;6.30;;;14.90;76.80;;;;;;5076891;28;20028;-79
2021/09/05 06:02:46;;;;;;;8.90;6.35;;;15.00;76.10;;;;;;5076828;28;20044;-78
2021/09/05 06:05:13;;;;;;;7.75;6.28;;;15.10;76.00;;;;;;5076747;28;20082;-80
2021/09/05 06:07:39;;;;;;;11.07;6.38;;;15.10;75.70;;;;;;5077334;28;20036;-78
2021/09/05 06:10:07;;;;;;;9.23;6.00;;;15.10;76.00;;;;;;5079620;28;20375;-79
2021/09/05 06:12:39;;;;;;;9.02;5.63;;;15.20;75.90;;;;;;5083535;28;20115;-89
2021/09/05 06:15:06;;;;;;;12.38;5.70;;;15.30;78.20;;;;;;5099569;28;20054;-82
2021/09/05 06:17:32;;;;;;;8.55;6.30;;;15.50;78.10;;;;;;5077291;28;20028;-86
2021/09/05 06:20:03;;;;;;;11.57;5.88;;;15.70;77.10;;;;;;5076667;28;20016;-83
2021/09/05 06:22:29;;;;;;;8.95;5.68;;;15.80;76.20;;;;;;5077606;28;20024;-84
2021/09/05 06:24:56;;;;;;;8.65;5.63;;;15.90;74.90;;;;;;5098154;28;20498;-84
2021/09/05 06:27:28;;;;;;;8.45;5.40;;;16.00;73.30;;;;;;5099077;28;20031;-85
2021/09/05 06:30:14;;;;;;;9.68;5.22;;;15.90;73.00;;;;;;5112062;28;20031;-79
2021/09/05 06:32:42;;;;;;;8.40;5.50;;;16.00;73.80;;;;;;5127285;28;20042;-86
2021/09/05 06:35:12;;;;;;;6.72;4.82;;;16.10;73.60;;;;;;5097630;28;20027;-84
2021/09/05 06:37:39;;;;;;;9.25;5.82;;;16.20;73.40;;;;;;5081004;28;20373;-87
2021/09/05 06:40:10;;;;;;;6.28;5.00;;;16.40;73.00;;;;;;5115560;28;20103;-85
2021/09/05 06:42:37;;;;;;;6.13;4.63;;;16.60;72.60;;;;;;5081169;28;20027;-86
2021/09/05 06:45:05;;;;;;;6.22;4.68;;;17.00;71.70;;;;;;5097866;28;20028;-85
2021/09/05 06:47:32;;;;;;;5.60;4.47;;;17.40;70.60;;;;;;5114049;28;20040;-85
2021/09/05 06:49:58;;;;;;;6.72;4.68;;;17.60;69.50;;;;;;5079174;28;20440;-86
2021/09/05 06:52:25;;;;;;;7.90;5.22;;;17.70;69.10;;;;;;5096538;28;20135;-86
2021/09/05 06:54:56;;;;;;;7.18;4.80;;;17.90;68.50;;;;;;5080457;28;20464;-84
2021/09/05 06:57:24;;;;;;;6.90;4.75;;;18.00;68.00;;;;;;5097253;28;20053;-84
2021/09/05 06:59:54;;;;;;;7.88;5.43;;;18.10;67.70;;;;;;5081001;28;20126;-86
2021/09/05 07:02:39;;;;;;;10.35;5.38;;;18.20;66.90;;;;;;5078514;28;20055;-84
2021/09/05 07:05:06;;;;;;;7.35;5.10;;;18.30;67.00;;;;;;5092037;28;20040;-86
2021/09/05 07:07:32;;;;;;;8.00;4.70;;;18.30;66.90;;;;;;5075909;28;20040;-85
2021/09/05 07:09:59;;;;;;;7.30;4.90;;;18.30;66.90;;;;;;5093189;28;20024;-85
2021/09/05 07:12:29;;;;;;;7.00;5.45;;;18.30;66.90;;;;;;5093507;28;20032;-84
2021/09/05 07:14:57;;;;;;;6.93;4.97;;;18.20;67.10;;;;;;5093914;28;20061;-84
2021/09/05 07:17:24;;;;;;;6.03;5.13;;;18.30;67.30;;;;;;5092923;28;20053;-84
2021/09/05 07:20:05;;;;;;;6.13;4.72;;;18.40;67.10;;;;;;5076652;28;20052;-85
2021/09/05 07:22:30;;;;;;;6.55;5.20;;;18.50;67.10;;;;;;5076631;28;20110;-85
2021/09/05 07:24:57;;;;;;;6.57;4.97;;;18.60;66.80;;;;;;5075590;28;20060;-86
2021/09/05 07:27:26;;;;;;;6.75;4.85;;;18.60;67.20;;;;;;5094216;28;20420;-86
2021/09/05 07:29:53;;;;;;;8.32;5.05;;;18.70;66.60;;;;;;5095984;28;20047;-84
2021/09/05 07:32:19;;;;;;;7.03;4.80;;;18.80;66.80;;;;;;5092410;28;20059;-82
2021/09/05 07:34:46;;;;;;;6.90;4.95;;;18.90;67.00;;;;;;5092595;28;20039;-85
2021/09/05 07:37:12;;;;;;;6.35;4.78;;;18.90;66.70;;;;;;5092355;28;20391;-81
2021/09/05 07:39:39;;;;;;;5.65;4.50;;;19.00;66.70;;;;;;5093613;28;20042;-78
2021/09/05 07:42:05;;;;;;;9.73;4.97;;;19.20;66.70;;;;;;5091957;28;20031;-78
2021/09/05 07:44:31;;;;;;;9.55;5.35;;;19.20;66.10;;;;;;5092166;28;20039;-78
2021/09/05 07:46:58;;;;;;;7.75;5.40;;;19.30;66.30;;;;;;5091560;28;20032;-78
2021/09/05 07:49:24;;;;;;;8.82;5.72;;;19.40;66.30;;;;;;5092027;28;20028;-78
2021/09/05 07:51:49;;;;;;;6.88;5.28;;;19.40;65.40;;;;;;5058292;28;20034;-79
2021/09/05 07:54:16;;;;;;;6.57;5.20;;;19.40;65.10;;;;;;5091978;28;20120;-78
2021/09/05 07:56:42;;;;;;;7.15;5.55;;;19.50;66.30;;;;;;5091470;28;20113;-78
2021/09/05 07:59:07;;;;;;;8.95;5.68;;;19.50;66.50;;;;;;5076649;28;20028;-77
2021/09/05 08:01:33;;;;;;;8.82;5.80;;;19.50;67.80;;;;;;5093129;28;20034;-78
2021/09/05 08:03:58;;;;;;;9.18;5.13;;;19.60;66.50;;;;;;5091735;28;20097;-78
2021/09/05 08:06:25;;;;;;;8.57;5.65;;;19.60;66.50;;;;;;5091871;28;20032;-78
2021/09/05 08:08:50;;;;;;;8.80;5.70;;;19.40;67.70;;;;;;5091914;28;20028;-78
2021/09/05 08:11:16;;;;;;;7.57;5.45;;;19.40;67.40;;;;;;5091868;28;20121;-78
2021/09/05 08:13:42;;;;;;;8.32;5.70;;;19.50;67.40;;;;;;5093050;28;20072;-80
2021/09/05 08:16:07;;;;;;;7.55;5.82;;;19.60;67.80;;;;;;5094702;28;20031;-79
2021/09/05 08:18:35;;;;;;;13.00;9.68;;;19.80;67.60;;;;;;5095887;28;20166;-79
2021/09/05 08:21:03;;;;;;;7.65;5.80;;;19.80;67.00;;;;;;5095876;28;20115;-79
2021/09/05 08:23:30;;;;;;;6.72;5.28;;;20.00;66.20;;;;;;5096006;28;20055;-77
2021/09/05 08:25:58;;;;;;;9.30;5.43;;;20.10;66.40;;;;;;5095682;28;20117;-79
2021/09/05 08:28:24;;;;;;;8.73;5.78;;;20.20;67.10;;;;;;5095951;28;20317;-78
2021/09/05 08:30:49;;;;;;;7.47;5.88;;;20.30;66.50;;;;;;5095366;28;20145;-78
2021/09/05 08:33:16;;;;;;;10.23;5.50;;;20.30;66.40;;;;;;5095418;28;20619;-78
2021/09/05 08:35:44;;;;;;;9.00;5.97;;;20.40;65.00;;;;;;5078867;28;20024;-77
2021/09/05 08:38:10;;;;;;;6.90;5.25;;;20.50;64.90;;;;;;5095788;28;20056;-78
2021/09/05 08:40:40;;;;;;;10.05;5.28;;;20.50;63.80;;;;;;5095419;28;20028;-79
2021/09/05 08:43:07;;;;;;;6.38;5.18;;;20.70;64.30;;;;;;5096948;28;20024;-80
2021/09/05 08:45:34;;;;;;;7.53;4.63;;;20.80;64.00;;;;;;5079060;28;20035;-80
2021/09/05 08:48:01;;;;;;;8.35;5.63;;;20.80;63.20;;;;;;5095287;28;20400;-78
2021/09/05 08:50:27;;;;;;;8.10;5.53;;;20.80;64.10;;;;;;5095481;28;20107;-78
2021/09/05 08:52:53;;;;;;;7.70;5.13;;;20.90;64.80;;;;;;5094848;28;20044;-79
2021/09/05 08:55:22;;;;;;;7.38;5.57;;;21.10;64.00;;;;;;5096573;28;20020;-79
2021/09/05 08:57:51;;;;;;;7.25;5.53;;;21.10;61.90;;;;;;5095196;28;20023;-78
2021/09/05 09:00:19;;;;;;;6.95;5.80;;;21.20;62.20;;;;;;5095502;28;20031;-79
2021/09/05 09:02:49;;;;;;;6.28;4.93;;;21.40;62.90;;;;;;5095293;28;20048;-79
2021/09/05 09:05:35;;;;;;;6.95;5.25;;;21.60;60.40;;;;;;5095508;28;20024;-78
2021/09/05 09:08:05;;;;;;;7.78;5.15;;;21.60;61.20;;;;;;5095093;28;20088;-80
2021/09/05 09:10:32;;;;;;;9.32;5.90;;;21.60;61.00;;;;;;5095132;28;20027;-79
2021/09/05 09:12:59;;;;;;;8.02;5.28;;;21.70;61.70;;;;;;5094857;28;20039;-80
2021/09/05 09:15:31;;;;;;;6.32;5.05;;;21.70;60.30;;;;;;5078018;28;20024;-79
2021/09/05 09:17:58;;;;;;;8.65;6.03;;;21.90;59.60;;;;;;5094698;28;20027;-79
2021/09/05 09:20:43;;;;;;;10.27;5.40;;;21.90;59.40;;;;;;5094824;28;20026;-81
2021/09/05 09:23:20;;;;;;;7.60;4.82;;;22.00;60.00;;;;;;5094755;28;20028;-79
2021/09/05 09:26:02;;;;;;;6.43;5.10;;;22.20;59.20;;;;;;5094817;28;20115;-81
2021/09/05 09:28:39;;;;;;;9.90;5.28;;;22.40;58.20;;;;;;5094377;28;20404;-77
2021/09/05 09:31:17;;;;;;;9.05;6.18;;;22.50;57.20;;;;;;5094826;28;20038;-79
2021/09/05 09:33:51;;;;;;;7.05;5.30;;;22.60;58.50;;;;;;5099299;28;20028;-80
2021/09/05 09:36:20;;;;;;;5.60;5.00;;;22.50;57.70;;;;;;5094940;28;20059;-80
2021/09/05 09:39:18;;;;;;;7.97;5.22;;;22.60;56.60;;;;;;5094175;28;20059;-78
2021/09/05 09:41:44;;;;;;;6.18;5.25;;;22.80;56.50;;;;;;5092550;28;20036;-81
2021/09/05 09:44:13;;;;;;;5.60;4.93;;;23.20;56.50;;;;;;5077511;28;20021;-81
2021/09/05 09:46:40;;;;;;;8.48;6.28;;;23.50;54.40;;;;;;5094500;28;20031;-81
2021/09/05 09:49:11;;;;;;;4.70;4.10;;;23.90;52.20;;;;;;5094401;28;20448;-80
2021/09/05 09:51:39;;;;;;;4.95;4.07;;;24.20;52.10;;;;;;5094431;28;20027;-80
2021/09/05 09:54:05;;;;;;;6.47;5.05;;;24.40;50.10;;;;;;5094156;28;20026;-79
2021/09/05 09:56:32;;;;;;;5.10;4.25;;;24.70;47.80;;;;;;5094572;28;20028;-79
2021/09/05 09:59:00;;;;;;;4.57;4.10;;;25.00;46.60;;;;;;5093913;28;20032;-79
2021/09/05 10:01:27;;;;;;;4.80;4.25;;;25.20;45.60;;;;;;5094259;28;20021;-80
2021/09/05 10:03:55;;;;;;;5.57;4.60;;;25.40;44.00;;;;;;5114970;28;20043;-80
2021/09/05 10:06:30;;;;;;;5.45;4.30;;;25.60;40.70;;;;;;5097416;28;20020;-79
2021/09/05 10:09:01;;;;;;;7.20;4.88;;;25.60;39.80;;;;;;5097498;28;20548;-78
2021/09/05 10:11:28;;;;;;;6.45;5.22;;;25.50;39.40;;;;;;5097698;28;20059;-78
2021/09/05 10:13:59;;;;;;;7.60;4.80;;;25.50;39.90;;;;;;5097366;28;20038;-79
2021/09/05 10:16:25;;;;;;;5.28;4.60;;;25.30;40.80;;;;;;5098376;28;20024;-78
2021/09/05 10:18:59;;;;;;;6.38;4.43;;;25.40;42.40;;;;;;5100846;28;20027;-79
2021/09/05 10:21:28;;;;;;;5.53;4.38;;;25.50;42.60;;;;;;5122482;28;20020;-79
2021/09/05 10:23:57;;;;;;;4.68;3.88;;;25.70;42.20;;;;;;5104557;28;20095;-79
2021/09/05 10:26:24;;;;;;;5.32;4.25;;;26.00;40.80;;;;;;5115354;28;20049;-81
2021/09/05 10:28:53;;;;;;;5.72;4.55;;;26.20;40.60;;;;;;5118548;28;20028;-79
2021/09/05 10:31:38;;;;;;;5.35;4.85;;;26.50;40.80;;;;;;5119085;28;20003;-78
2021/09/05 10:34:03;;;;;;;6.43;4.47;;;26.70;40.50;;;;;;5121112;28;20095;-79
2021/09/05 10:36:43;;;;;;;4.85;4.20;;;26.80;40.80;;;;;;5120436;28;20030;-80
2021/09/05 10:39:10;;;;;;;4.95;4.28;;;27.10;41.80;;;;;;5119850;28;20089;-78
2021/09/05 10:41:57;;;;;;;5.78;4.75;;;27.30;40.20;;;;;;5132013;28;20028;-80
2021/09/05 10:44:24;;;;;;;4.95;4.25;;;27.50;39.00;;;;;;5102089;28;20386;-78
2021/09/05 10:46:51;;;;;;;6.57;4.32;;;27.60;38.00;;;;;;5122052;28;20111;-79
2021/09/05 10:49:40;;;;;;;6.05;4.57;;;27.80;38.10;;;;;;5115452;28;20471;-80
2021/09/05 10:52:06;;;;;;;8.95;4.68;;;27.90;38.20;;;;;;5097060;28;20024;-80
2021/09/05 10:54:43;;;;;;;8.77;5.32;;;28.00;38.40;;;;;;5096684;28;20020;-80
2021/09/05 10:57:09;;;;;;;7.05;4.28;;;27.80;37.10;;;;;;5096891;28;20023;-80
2021/09/05 10:59:35;;;;;;;7.18;4.68;;;27.90;37.40;;;;;;5096434;28;20026;-81
2021/09/05 11:02:04;;;;;;;5.40;4.65;;;27.90;37.10;;;;;;5096238;28;20039;-81
2021/09/05 11:04:40;;;;;;;5.68;4.70;;;27.90;37.10;;;;;;5096042;28;20023;-80
2021/09/05 11:07:09;;;;;;;5.18;4.68;;;28.20;37.30;;;;;;5095677;28;20035;-80
2021/09/05 11:09:42;;;;;;;5.00;4.18;;;28.40;36.90;;;;;;5095891;28;20047;-80
2021/09/05 11:12:15;;;;;;;6.13;4.78;;;28.60;37.50;;;;;;5113501;28;20096;-80
2021/09/05 11:14:47;;;;;;;6.97;4.15;;;28.80;36.30;;;;;;5095876;28;20043;-80
2021/09/05 11:17:17;;;;;;;4.47;4.07;;;28.90;35.90;;;;;;5113604;28;20035;-79
2021/09/05 11:19:48;;;;;;;5.32;4.47;;;29.10;35.10;;;;;;5095886;28;20027;-80
2021/09/05 11:22:19;;;;;;;5.63;4.38;;;29.20;34.90;;;;;;5095781;28;20226;-81
2021/09/05 11:24:46;;;;;;;4.65;3.92;;;29.20;34.00;;;;;;5095850;28;20476;-79
2021/09/05 11:27:16;;;;;;;4.70;4.07;;;29.20;34.90;;;;;;5095411;28;20035;-81
2021/09/05 11:29:41;;;;;;;7.65;4.85;;;29.50;35.30;;;;;;5095875;28;20020;-80
2021/09/05 11:32:13;;;;;;;4.50;4.10;;;29.60;33.80;;;;;;5095638;28;20081;-81
2021/09/05 11:34:51;;;;;;;5.13;4.05;;;29.70;33.70;;;;;;5095427;28;20053;-81
2021/09/05 11:37:31;;;;;;;5.20;4.32;;;29.80;34.00;;;;;;5095416;28;20564;-81
2021/09/05 11:40:04;;;;;;;5.65;4.47;;;30.00;33.60;;;;;;5095578;28;20034;-80
2021/09/05 11:42:32;;;;;;;7.30;4.38;;;30.00;31.50;;;;;;5095407;28;20028;-81
2021/09/05 11:45:06;;;;;;;5.90;4.97;;;29.70;32.10;;;;;;5099219;28;20020;-79
2021/09/05 11:47:33;;;;;;;6.80;4.10;;;29.40;33.90;;;;;;5099000;28;20399;-79
2021/09/05 11:50:01;;;;;;;4.88;4.35;;;29.30;33.50;;;;;;5095138;28;20510;-79
2021/09/05 11:52:31;;;;;;;5.65;4.82;;;29.40;35.00;;;;;;5079200;28;20085;-80
2021/09/05 11:55:14;;;;;;;5.43;4.05;;;29.60;33.80;;;;;;5095111;28;20024;-80
2021/09/05 11:58:02;;;;;;;4.50;4.03;;;29.50;34.40;;;;;;5095500;28;20031;-82
2021/09/05 12:00:39;;;;;;;5.22;4.03;;;29.80;35.00;;;;;;5095231;28;20110;-79
2021/09/05 12:03:07;;;;;;;5.20;4.03;;;30.30;34.00;;;;;;5094814;28;20050;-81
2021/09/05 12:05:33;;;;;;;4.40;4.00;;;30.60;32.50;;;;;;5095337;28;20035;-81
2021/09/05 12:07:59;;;;;;;6.80;4.22;;;30.60;32.60;;;;;;5113535;28;20035;-82
2021/09/05 12:10:28;;;;;;;4.72;4.20;;;30.60;32.70;;;;;;5095282;28;20022;-81
2021/09/05 12:13:05;;;;;;;4.75;4.05;;;30.70;33.70;;;;;;5095224;28;20110;-81
2021/09/05 12:15:43;;;;;;;5.43;3.45;;;31.00;33.80;;;;;;5095032;28;20058;-81
2021/09/05 12:18:22;;;;;;;4.68;4.22;;;31.30;32.90;;;;;;5078897;28;20088;-81
2021/09/05 12:20:52;;;;;;;6.80;4.80;;;31.60;32.40;;;;;;5113733;28;20096;-81
2021/09/05 12:23:29;;;;;;;4.72;4.00;;;31.00;30.60;;;;;;5095308;28;20034;-80
2021/09/05 12:25:57;;;;;;;6.32;4.10;;;30.90;30.90;;;;;;5095196;28;20094;-80
2021/09/05 12:28:32;;;;;;;5.78;3.90;;;31.10;31.90;;;;;;5113330;28;20399;-81
2021/09/05 12:31:00;;;;;;;5.20;3.63;;;31.40;31.70;;;;;;5092561;28;20024;-81
2021/09/05 12:33:26;;;;;;;4.85;4.35;;;31.60;32.30;;;;;;5113327;28;20024;-81
2021/09/05 12:35:55;;;;;;;4.63;3.97;;;31.70;30.50;;;;;;5094974;28;20020;-82
2021/09/05 12:38:32;;;;;;;5.32;4.00;;;31.70;30.20;;;;;;5094854;28;20028;-82
2021/09/05 12:41:14;;;;;;;4.63;3.85;;;31.80;30.30;;;;;;5094743;28;20032;-82
2021/09/05 12:43:51;;;;;;;4.65;4.03;;;31.70;29.70;;;;;;5078005;28;20020;-80
2021/09/05 12:46:22;;;;;;;5.70;3.90;;;31.60;29.70;;;;;;5094328;28;20579;-80
2021/09/05 12:48:50;;;;;;;5.65;4.28;;;31.80;29.50;;;;;;5077781;28;20122;-80
2021/09/05 12:51:19;;;;;;;5.45;3.75;;;31.90;29.10;;;;;;5094281;28;20028;-80
2021/09/05 12:54:02;;;;;;;4.15;3.70;;;32.00;28.90;;;;;;5077807;28;20028;-80